createdAt,value
2022-09-12T00:01:30.743Z,14.03
2022-09-12T00:04:35.656Z,14.00
2022-09-12T00:07:42.931Z,14.01
2022-09-12T00:10:48.132Z,14.00
2022-09-12T00:13:53.233Z,13.97
2022-09-12T00:17:01.225Z,13.96
2022-09-12T00:20:07.548Z,13.86
2022-09-12T00:23:14.293Z,13.85
2022-09-12T00:26:22.259Z,13.85
2022-09-12T00:29:27.350Z,13.81
2022-09-12T00:32:34.181Z,13.81
2022-09-12T00:35:44.729Z,13.80
2022-09-12T00:38:52.678Z,13.79
2022-09-12T00:41:57.789Z,13.80
2022-09-12T00:45:02.874Z,13.85
2022-09-12T00:48:08.590Z,13.88
2022-09-12T00:51:14.014Z,13.83
2022-09-12T00:54:27.567Z,13.84
2022-09-12T00:57:36.869Z,13.92
2022-09-12T01:00:42.140Z,13.97
2022-09-12T01:03:47.660Z,14.02
2022-09-12T01:06:53.192Z,14.04
2022-09-12T01:09:59.928Z,14.00
2022-09-12T01:13:09.488Z,13.94
2022-09-12T01:16:14.547Z,13.91
2022-09-12T01:19:40.259Z,13.88
2022-09-12T01:23:02.186Z,13.83
2022-09-12T01:26:29.581Z,13.79
2022-09-12T01:29:55.128Z,13.72
2022-09-12T01:33:31.193Z,13.62
2022-09-12T01:36:41.591Z,13.59
2022-09-12T01:39:59.827Z,13.58
2022-09-12T01:43:20.417Z,13.59
2022-09-12T01:46:33.266Z,13.61
2022-09-12T01:49:46.805Z,13.60
2022-09-12T01:52:55.252Z,13.52
2022-09-12T01:56:09.147Z,13.54
2022-09-12T01:59:19.807Z,13.53
2022-09-12T02:02:27.281Z,13.51
2022-09-12T02:05:36.873Z,13.49
2022-09-12T02:08:45.947Z,13.48
2022-09-12T02:11:53.269Z,13.44
2022-09-12T02:15:03.882Z,13.41
2022-09-12T02:18:12.661Z,13.43
2022-09-12T02:21:22.979Z,13.38
2022-09-12T02:24:31.982Z,13.38
2022-09-12T02:27:42.439Z,13.36
2022-09-12T02:30:56.283Z,13.34
2022-09-12T02:34:11.960Z,13.32
2022-09-12T02:37:26.499Z,13.24
2022-09-12T02:40:32.070Z,13.21
2022-09-12T02:43:38.272Z,13.18
2022-09-12T02:46:47.186Z,13.19
2022-09-12T02:49:52.559Z,13.16
2022-09-12T02:53:04.950Z,13.07
2022-09-12T02:56:14.527Z,13.09
2022-09-12T02:59:23.430Z,13.02
2022-09-12T03:02:36.206Z,12.95
2022-09-12T03:05:48.680Z,12.96
2022-09-12T03:09:05.314Z,12.96
2022-09-12T03:12:21.271Z,12.92
2022-09-12T03:15:38.144Z,12.90
2022-09-12T03:18:57.866Z,12.88
2022-09-12T03:22:12.658Z,12.81
2022-09-12T03:25:23.366Z,12.77
2022-09-12T03:28:29.356Z,12.79
2022-09-12T03:31:34.530Z,12.82
2022-09-12T03:34:39.644Z,12.75
2022-09-12T03:37:45.486Z,12.70
2022-09-12T03:40:54.837Z,12.68
2022-09-12T03:43:59.998Z,12.72
2022-09-12T03:47:08.029Z,12.66
2022-09-12T03:50:15.384Z,12.66
2022-09-12T03:53:20.100Z,12.64
2022-09-12T03:56:26.699Z,12.64
2022-09-12T03:59:31.717Z,12.63
2022-09-12T04:02:36.556Z,12.64
2022-09-12T04:05:41.505Z,12.63
2022-09-12T04:08:47.095Z,12.62
2022-09-12T04:11:54.376Z,12.59
2022-09-12T04:15:09.381Z,12.57
2022-09-12T04:18:14.109Z,12.54
2022-09-12T04:21:22.315Z,12.48
2022-09-12T04:24:27.254Z,12.49
2022-09-12T04:27:35.105Z,12.46
2022-09-12T04:30:39.888Z,12.46
2022-09-12T04:33:44.519Z,12.45
2022-09-12T04:36:49.708Z,12.45
2022-09-12T04:39:58.026Z,12.49
2022-09-12T04:43:04.347Z,12.47
2022-09-12T04:46:09.329Z,12.43
2022-09-12T04:49:14.911Z,12.38
2022-09-12T04:52:19.891Z,12.33
2022-09-12T04:55:25.475Z,12.32
2022-09-12T04:58:33.531Z,12.33
2022-09-12T05:01:38.627Z,12.36
2022-09-12T05:04:43.278Z,12.35
2022-09-12T05:07:48.287Z,12.33
2022-09-12T05:10:53.027Z,12.31
2022-09-12T05:13:59.470Z,12.34
2022-09-12T05:17:05.061Z,12.38
2022-09-12T05:20:13.369Z,12.36
2022-09-12T05:23:17.896Z,12.39
2022-09-12T05:26:23.534Z,12.46
2022-09-12T05:29:30.170Z,12.52
2022-09-12T05:32:34.733Z,12.52
2022-09-12T05:35:39.721Z,12.54
2022-09-12T05:38:46.555Z,12.55
2022-09-12T05:41:51.533Z,12.64
2022-09-12T05:44:58.023Z,12.66
2022-09-12T05:48:04.793Z,12.72
2022-09-12T05:51:12.401Z,12.81
2022-09-12T05:54:21.090Z,12.87
2022-09-12T05:57:26.633Z,13.03
2022-09-12T06:00:33.731Z,13.22
2022-09-12T06:03:43.083Z,13.41
2022-09-12T06:06:49.461Z,13.64
2022-09-12T06:09:55.205Z,13.85
2022-09-12T06:13:00.284Z,14.04
2022-09-12T06:16:08.675Z,14.20
2022-09-12T06:19:17.153Z,14.33
2022-09-12T06:22:22.285Z,14.45
2022-09-12T06:25:27.113Z,14.67
2022-09-12T06:28:32.606Z,14.83
2022-09-12T06:31:41.062Z,14.99
2022-09-12T06:34:48.035Z,15.13
2022-09-12T06:37:53.275Z,15.34
2022-09-12T06:40:58.986Z,15.55
2022-09-12T06:44:04.229Z,15.73
2022-09-12T06:47:10.758Z,15.91
2022-09-12T06:50:15.713Z,16.18
2022-09-12T06:53:20.676Z,16.52
2022-09-12T06:56:27.623Z,16.90
2022-09-12T06:59:32.553Z,17.51
2022-09-12T07:02:39.120Z,17.81
2022-09-12T07:05:46.226Z,17.87
2022-09-12T07:08:51.351Z,18.34
2022-09-12T07:11:56.577Z,19.34
2022-09-12T07:15:01.549Z,20.11
2022-09-12T07:18:08.482Z,20.44
2022-09-12T07:21:15.419Z,20.42
2022-09-12T07:24:20.176Z,19.89
2022-09-12T07:27:25.226Z,19.41
2022-09-12T07:30:30.454Z,19.05
2022-09-12T07:33:37.741Z,18.75
2022-09-12T07:36:42.625Z,18.46
2022-09-12T07:39:47.705Z,18.30
2022-09-12T07:42:52.710Z,18.15
2022-09-12T07:45:58.933Z,17.98
2022-09-12T07:49:05.555Z,17.93
2022-09-12T07:52:10.833Z,17.87
2022-09-12T07:55:15.599Z,17.93
2022-09-12T07:58:20.735Z,17.92
2022-09-12T08:01:26.667Z,17.92
2022-09-12T08:04:33.243Z,17.99
2022-09-12T08:07:38.491Z,18.16
2022-09-12T08:10:43.600Z,18.33
2022-09-12T08:13:54.353Z,18.64
2022-09-12T08:17:00.658Z,18.99
2022-09-12T08:20:08.155Z,19.31
2022-09-12T08:23:12.999Z,19.55
2022-09-12T08:26:17.871Z,19.81
2022-09-12T08:29:22.892Z,20.07
2022-09-12T08:32:27.642Z,20.36
2022-09-12T08:35:34.153Z,20.67
2022-09-12T08:38:40.146Z,20.92
2022-09-12T08:41:47.210Z,21.04
2022-09-12T08:45:07.338Z,21.30
2022-09-12T08:48:13.649Z,21.53
2022-09-12T08:51:22.559Z,21.72
2022-09-12T08:54:33.105Z,21.85
2022-09-12T08:57:38.608Z,21.93
2022-09-12T09:00:50.913Z,21.96
2022-09-12T09:04:30.634Z,22.01
2022-09-12T09:07:56.400Z,22.28
2022-09-12T09:11:11.795Z,22.58
2022-09-12T09:14:50.453Z,22.77
2022-09-12T09:17:58.052Z,22.98
2022-09-12T09:21:08.243Z,23.23
2022-09-12T09:24:19.782Z,23.40
2022-09-12T09:27:41.406Z,23.43
2022-09-12T09:30:47.279Z,23.54
2022-09-12T09:33:54.731Z,23.67
2022-09-12T09:37:06.241Z,23.75
2022-09-12T09:40:23.536Z,23.83
2022-09-12T09:43:29.762Z,23.98
2022-09-12T09:46:35.728Z,24.15
2022-09-12T09:49:41.920Z,24.25
2022-09-12T09:52:46.650Z,24.34
2022-09-12T09:55:56.119Z,24.35
2022-09-12T09:59:12.255Z,24.45
2022-09-12T10:02:24.474Z,24.43
2022-09-12T10:05:29.533Z,24.51
2022-09-12T10:08:37.311Z,24.65
2022-09-12T10:11:45.898Z,24.82
2022-09-12T10:15:01.062Z,24.91
2022-09-12T10:18:06.234Z,25.02
2022-09-12T10:21:41.361Z,25.20
2022-09-12T10:24:52.835Z,25.20
2022-09-12T10:28:03.399Z,25.22
2022-09-12T10:31:10.898Z,25.32
2022-09-12T10:34:29.304Z,25.23
2022-09-12T10:44:53.429Z,25.26
2022-09-12T10:48:16.822Z,25.40
2022-09-12T10:51:31.193Z,25.34
2022-09-12T10:54:36.140Z,25.39
2022-09-12T10:57:57.091Z,25.36
2022-09-12T11:01:12.156Z,25.43
2022-09-12T11:04:45.847Z,25.47
2022-09-12T11:07:54.808Z,25.72
2022-09-12T11:11:29.294Z,25.89
2022-09-12T11:14:50.115Z,25.98
2022-09-12T11:18:04.087Z,26.06
2022-09-12T11:21:20.925Z,26.17
2022-09-12T11:24:44.344Z,26.34
2022-09-12T11:28:03.337Z,26.26
2022-09-12T11:31:23.572Z,26.35
2022-09-12T11:34:38.700Z,26.41
2022-09-12T11:37:54.670Z,26.46
2022-09-12T11:41:05.394Z,26.52
2022-09-12T11:44:18.043Z,26.60
2022-09-12T11:47:26.267Z,26.50
2022-09-12T11:50:37.075Z,26.38
2022-09-12T11:53:46.425Z,26.40
2022-09-12T11:56:55.928Z,26.44
2022-09-12T12:00:04.882Z,26.44
2022-09-12T12:03:15.963Z,26.62
2022-09-12T12:06:27.054Z,26.76
2022-09-12T12:09:32.631Z,26.89
2022-09-12T12:12:38.217Z,26.98
2022-09-12T12:15:49.158Z,27.19
2022-09-12T12:18:58.706Z,27.34
2022-09-12T12:22:17.642Z,27.49
2022-09-12T12:25:30.285Z,27.63
2022-09-12T12:29:02.937Z,27.76
2022-09-12T12:32:26.483Z,27.71
2022-09-12T12:35:42.993Z,27.73
2022-09-12T12:38:49.349Z,27.61
2022-09-12T12:41:54.918Z,27.57
2022-09-12T12:45:03.347Z,27.52
2022-09-12T12:48:13.783Z,27.69
2022-09-12T12:51:58.073Z,27.82
2022-09-12T12:55:06.014Z,27.79
2022-09-12T12:58:29.305Z,27.85
2022-09-12T13:01:41.319Z,27.93
2022-09-12T13:04:49.420Z,28.06
2022-09-12T13:08:00.361Z,28.08
2022-09-12T13:11:11.464Z,27.99
2022-09-12T13:14:38.064Z,28.04
2022-09-12T13:17:45.892Z,27.86
2022-09-12T13:20:56.224Z,27.78
2022-09-12T13:24:06.637Z,27.78
2022-09-12T13:27:21.626Z,27.71
2022-09-12T13:30:26.662Z,27.71
2022-09-12T13:33:41.700Z,27.71
2022-09-12T13:37:08.551Z,27.65
2022-09-12T13:40:31.765Z,27.62
2022-09-12T13:43:42.927Z,27.52
2022-09-12T13:46:48.995Z,27.52
2022-09-12T13:49:55.612Z,27.51
2022-09-12T13:53:03.927Z,27.57
2022-09-12T13:56:09.108Z,27.59
2022-09-12T13:59:15.538Z,27.63
2022-09-12T14:02:22.630Z,27.65
2022-09-12T14:05:28.086Z,27.79
2022-09-12T14:08:34.149Z,27.93
2022-09-12T14:11:42.823Z,28.48
2022-09-12T14:14:52.301Z,29.39
2022-09-12T14:18:01.931Z,30.04
2022-09-12T14:21:13.323Z,30.69
2022-09-12T14:24:20.847Z,31.22
2022-09-12T14:27:28.488Z,31.44
2022-09-12T14:30:36.924Z,30.88
2022-09-12T14:33:50.586Z,30.84
2022-09-12T14:36:57.730Z,30.53
2022-09-12T14:40:03.478Z,30.16
2022-09-12T14:43:08.162Z,29.80
2022-09-12T14:46:22.155Z,29.52
2022-09-12T14:49:32.881Z,29.34
2022-09-12T14:52:40.538Z,29.10
2022-09-12T14:55:48.285Z,29.00
2022-09-12T14:58:53.267Z,28.90
2022-09-12T15:02:23.159Z,28.68
2022-09-12T15:05:29.060Z,28.56
2022-09-12T15:08:34.378Z,28.50
2022-09-12T15:11:39.213Z,28.45
2022-09-12T15:14:43.910Z,28.33
2022-09-12T15:17:50.477Z,28.15
2022-09-12T15:20:58.007Z,28.00
2022-09-12T15:24:03.034Z,27.85
2022-09-12T15:27:11.553Z,27.62
2022-09-12T15:30:16.521Z,27.46
2022-09-12T15:33:24.954Z,27.24
2022-09-12T15:36:31.020Z,27.00
2022-09-12T15:39:35.719Z,26.86
2022-09-12T15:42:40.838Z,26.71
2022-09-12T15:45:46.527Z,26.51
2022-09-12T15:48:53.407Z,26.42
2022-09-12T15:52:00.023Z,26.39
2022-09-12T15:55:05.217Z,26.35
2022-09-12T15:58:10.629Z,26.19
2022-09-12T16:01:17.078Z,26.10
2022-09-12T16:04:25.368Z,26.06
2022-09-12T16:07:30.418Z,26.01
2022-09-12T16:10:35.647Z,25.98
2022-09-12T16:13:41.246Z,25.94
2022-09-12T16:16:46.518Z,25.83
2022-09-12T16:19:53.534Z,25.77
2022-09-12T16:22:58.684Z,25.68
2022-09-12T16:26:04.727Z,25.55
2022-09-12T16:29:09.717Z,25.41
2022-09-12T16:32:14.709Z,25.28
2022-09-12T16:35:20.973Z,25.13
2022-09-12T16:38:26.521Z,24.93
2022-09-12T16:41:31.555Z,24.82
2022-09-12T16:44:38.420Z,24.66
2022-09-12T16:47:43.181Z,24.54
2022-09-12T16:50:58.714Z,24.36
2022-09-12T16:54:04.388Z,24.28
2022-09-12T16:57:09.368Z,24.15
2022-09-12T17:00:14.769Z,24.00
2022-09-12T17:03:19.656Z,23.91
2022-09-12T17:06:26.530Z,23.86
2022-09-12T17:09:31.290Z,23.68
2022-09-12T17:12:35.724Z,23.47
2022-09-12T17:15:40.485Z,23.22
2022-09-12T17:18:45.414Z,23.02
2022-09-12T17:21:52.169Z,22.80
2022-09-12T17:24:56.687Z,22.57
2022-09-12T17:28:05.830Z,22.36
2022-09-12T17:31:12.175Z,22.17
2022-09-12T17:34:18.146Z,21.95
2022-09-12T17:37:24.962Z,21.84
2022-09-12T17:40:55.725Z,21.71
2022-09-12T17:43:56.757Z,21.51
2022-09-12T17:47:01.630Z,21.38
2022-09-12T17:50:30.475Z,21.24
2022-09-12T17:53:33.538Z,21.08
2022-09-12T17:56:37.933Z,20.95
2022-09-12T17:59:40.562Z,20.86
2022-09-12T18:02:43.065Z,20.75
2022-09-12T18:05:47.369Z,20.64
2022-09-12T18:08:51.789Z,20.55
2022-09-12T18:11:54.805Z,20.45
2022-09-12T18:14:57.396Z,20.33
2022-09-12T18:18:00.036Z,20.25
2022-09-12T18:21:03.506Z,20.16
2022-09-12T18:24:07.807Z,20.05
2022-09-12T18:27:10.413Z,19.97
2022-09-12T18:30:22.228Z,19.92
2022-09-12T18:33:25.005Z,19.80
2022-09-12T18:36:28.473Z,19.69
2022-09-12T18:39:32.443Z,19.62
2022-09-12T18:42:35.496Z,19.54
2022-09-12T18:45:38.184Z,19.55
2022-09-12T18:48:41.009Z,19.51
2022-09-12T18:51:44.444Z,19.41
2022-09-12T18:54:48.478Z,19.35
2022-09-12T18:57:51.500Z,19.27
2022-09-12T19:00:54.205Z,19.17
2022-09-12T19:03:57.328Z,19.10
2022-09-12T19:07:01.475Z,18.98
2022-09-12T19:10:06.083Z,18.90
2022-09-12T19:13:08.730Z,18.86
2022-09-12T19:16:13.687Z,18.78
2022-09-12T19:19:16.582Z,18.73
2022-09-12T19:22:19.541Z,18.70
2022-09-12T19:25:23.555Z,18.62
2022-09-12T19:28:26.905Z,18.61
2022-09-12T19:31:30.683Z,18.52
2022-09-12T19:34:33.755Z,18.45
2022-09-12T19:37:36.387Z,18.44
2022-09-12T19:40:40.985Z,18.39
2022-09-12T19:43:43.608Z,18.36
2022-09-12T19:46:46.367Z,18.27
2022-09-12T19:49:49.147Z,18.27
2022-09-12T19:52:51.822Z,18.22
2022-09-12T19:56:00.121Z,18.12
2022-09-12T19:59:02.830Z,18.09
2022-09-12T20:02:05.535Z,18.04
2022-09-12T20:05:09.034Z,18.00
2022-09-12T20:08:11.822Z,17.97
2022-09-12T20:11:18.323Z,17.94
2022-09-12T20:14:21.382Z,17.93
2022-09-12T20:17:24.038Z,17.88
2022-09-12T20:20:26.796Z,17.86
2022-09-12T20:23:29.417Z,17.78
2022-09-12T20:26:33.960Z,17.74
2022-09-12T20:29:36.614Z,17.69
2022-09-12T20:32:39.228Z,17.58
2022-09-12T20:35:41.861Z,17.52
2022-09-12T20:38:49.820Z,17.46
2022-09-12T20:41:54.162Z,17.40
2022-09-12T20:44:56.832Z,17.28
2022-09-12T20:47:59.457Z,17.32
2022-09-12T20:51:02.817Z,17.29
2022-09-12T20:54:07.531Z,17.31
2022-09-12T20:57:11.542Z,17.34
2022-09-12T21:00:14.980Z,17.36
2022-09-12T21:03:18.320Z,17.39
2022-09-12T21:06:21.717Z,17.37
2022-09-12T21:09:24.396Z,17.41
2022-09-12T21:12:29.516Z,17.42
2022-09-12T21:15:32.166Z,17.42
2022-09-12T21:18:36.156Z,17.40
2022-09-12T21:21:39.150Z,17.42
2022-09-12T21:24:41.754Z,17.44
2022-09-12T21:27:45.990Z,17.41
2022-09-12T21:30:49.562Z,17.42
2022-09-12T21:33:52.954Z,17.41
2022-09-12T21:36:55.565Z,17.35
2022-09-12T21:39:58.715Z,17.25
2022-09-12T21:43:03.107Z,17.23
2022-09-12T21:46:07.079Z,17.22
2022-09-12T21:49:09.725Z,17.19
2022-09-12T21:52:12.941Z,17.17
2022-09-12T21:55:16.012Z,17.15
2022-09-12T21:58:20.270Z,17.17
2022-09-12T22:01:22.985Z,17.16
2022-09-12T22:04:26.263Z,17.21
2022-09-12T22:07:29.306Z,17.21
2022-09-12T22:10:32.074Z,17.20
2022-09-12T22:13:37.237Z,17.19
2022-09-12T22:16:40.451Z,17.17
2022-09-12T22:19:43.154Z,17.20
2022-09-12T22:23:03.223Z,17.18
2022-09-12T22:26:05.894Z,17.11
2022-09-12T22:29:11.060Z,17.11
2022-09-12T22:32:14.024Z,17.15
2022-09-12T22:35:17.082Z,17.08
2022-09-12T22:38:19.718Z,16.99
2022-09-12T22:41:22.647Z,16.92
2022-09-12T22:44:26.652Z,16.88
2022-09-12T22:47:29.280Z,16.87
2022-09-12T22:50:32.062Z,16.84
2022-09-12T22:53:35.283Z,16.79
2022-09-12T22:56:38.063Z,16.78
2022-09-12T22:59:43.305Z,16.74
2022-09-12T23:02:49.933Z,16.70
2022-09-12T23:05:57.258Z,16.66
2022-09-12T23:09:07.839Z,16.65
2022-09-12T23:12:15.079Z,16.65
2022-09-12T23:15:22.978Z,16.66
2022-09-12T23:18:31.848Z,16.63
2022-09-12T23:21:38.760Z,16.54
2022-09-12T23:24:45.378Z,16.49
2022-09-12T23:27:53.948Z,16.46
2022-09-12T23:31:04.615Z,16.42
2022-09-12T23:34:11.767Z,16.40
2022-09-12T23:37:19.898Z,16.40
2022-09-12T23:40:26.633Z,16.39
2022-09-12T23:43:36.752Z,16.34
2022-09-12T23:46:44.868Z,16.28
2022-09-12T23:49:51.563Z,16.28
2022-09-12T23:52:59.803Z,16.28
2022-09-12T23:56:10.146Z,16.24
2022-09-12T23:59:20.280Z,16.21
